This is the latest recevied weather packets stored in our database for station/object HB9ZRH-10. If no packets are shown the sender has not sent any weather packets the latest 10 day(s).
| Time | Temp. | Humidity | Pressure | Rain* | Wind** | Luminosity | Snow |
|---|---|---|---|---|---|---|---|
| 1778193662 | 20.56° C | 48% | 1015 hPa | - | - | - | - |
| 1778193362 | 20° C | 49% | 1015 hPa | - | - | - | - |
| 1778193062 | 20° C | 49% | 1015 hPa | - | - | - | - |
| 1778192762 | 20° C | 49% | 1015 hPa | - | - | - | - |
| 1778192462 | 19.44° C | 50% | 1015.2 hPa | - | - | - | - |
| 1778192162 | 18.33° C | 50% | 1015.3 hPa | - | - | - | - |
| 1778191862 | 19.44° C | 49% | 1015.1 hPa | - | - | - | - |
| 1778191562 | 19.44° C | 50% | 1015.2 hPa | - | - | - | - |
| 1778191262 | 18.33° C | 50% | 1015.2 hPa | - | - | - | - |
| 1778190962 | 18.33° C | 50% | 1015.2 hPa | - | - | - | - |
| 1778190662 | 18.89° C | 49% | 1015.2 hPa | - | - | - | - |
| 1778190362 | 18.89° C | 50% | 1015.2 hPa | - | - | - | - |
| 1778190062 | 18.33° C | 50% | 1015.2 hPa | - | - | - | - |
| 1778189762 | 17.78° C | 51% | 1015.2 hPa | - | - | - | - |
| 1778189462 | 18.33° C | 50% | 1015.2 hPa | - | - | - | - |
| 1778189162 | 18.33° C | 50% | 1015.2 hPa | - | - | - | - |
| 1778188862 | 18.33° C | 50% | 1015.3 hPa | - | - | - | - |
| 1778188562 | 19.44° C | 48% | 1015.2 hPa | - | - | - | - |
| 1778188262 | 20° C | 48% | 1015.1 hPa | - | - | - | - |
| 1778187962 | 20° C | 48% | 1015.2 hPa | - | - | - | - |
| 1778187662 | 20.56° C | 48% | 1015.1 hPa | - | - | - | - |
| 1778187362 | 20° C | 48% | 1015.1 hPa | - | - | - | - |
| 1778187062 | 19.44° C | 49% | 1015.2 hPa | - | - | - | - |
| 1778186762 | 18.89° C | 49% | 1015.2 hPa | - | - | - | - |
| 1778186462 | 19.44° C | 48% | 1015.2 hPa | - | - | - | - |
* Rain since midnight (hover to see other rain measurements)
** Current wind speed in m/s (hover to see current wind gust speed)